Time;durP1;ratioP1;P1;durP2;ratioP2;P2;SDS_P1;SDS_P2;PMS_P1;PMS_P2;Temp;Humidity;BMP_temperature;BMP_pressure;BME280_temperature;BME280_humidity;BME280_pressure;Samples;Min_cycle;Max_cycle;Signal;HPM_P1;HPM_P2
2022/04/09 00:00:28;;;;;;;5.07;2.67;;;;;;;-144.47;63.18;53501.66;5029107;28;20510;-70
2022/04/09 00:02:53;;;;;;;7.07;2.65;;;;;;;-144.47;62.80;53503.63;5040353;28;20041;-69
2022/04/09 00:05:19;;;;;;;5.05;2.70;;;;;;;-144.47;62.34;53495.69;5042581;28;20083;-69
2022/04/09 00:07:44;;;;;;;6.53;2.78;;;;;;;-144.47;62.35;53471.84;5046085;28;20027;-70
2022/04/09 00:10:11;;;;;;;4.55;2.28;;;;;;;-144.47;62.33;53499.66;5058938;28;20031;-70
2022/04/09 00:12:37;;;;;;;5.63;2.75;;;;;;;-144.47;62.42;53523.50;5046348;28;20025;-69
2022/04/09 00:15:03;;;;;;;5.72;2.83;;;;;;;-144.47;62.41;53487.75;5051823;28;20040;-67
2022/04/09 00:17:35;;;;;;;6.00;2.28;;;;;;;-144.47;62.53;53463.91;5049471;28;20041;-67
2022/04/09 00:20:01;;;;;;;6.85;3.40;;;;;;;-144.47;62.59;53523.50;5044143;28;20029;-70
2022/04/09 00:22:26;;;;;;;10.27;3.00;;;;;;;-144.47;62.65;53495.69;5049552;28;20442;-73
2022/04/09 00:24:52;;;;;;;5.32;2.67;;;;;;;-144.47;62.43;53485.75;5040763;28;20083;-69
2022/04/09 00:27:17;;;;;;;6.00;2.80;;;;;;;-144.47;62.50;53477.81;5030437;28;20147;-68
2022/04/09 00:29:42;;;;;;;10.02;3.10;;;;;;;-144.47;62.58;53493.72;5048719;28;20037;-69
2022/04/09 00:32:07;;;;;;;7.13;3.00;;;;;;;-144.47;62.61;53493.72;5030214;28;20055;-69
2022/04/09 00:34:33;;;;;;;6.18;3.10;;;;;;;-144.47;62.72;53450.00;5027803;28;20075;-70
2022/04/09 00:36:58;;;;;;;7.78;3.72;;;;;;;-144.47;62.55;53507.59;5048489;28;20036;-71
2022/04/09 00:39:24;;;;;;;7.00;3.53;;;;;;;-144.47;62.46;53511.59;5046023;28;20028;-68
2022/04/09 00:41:50;;;;;;;7.15;3.20;;;;;;;-144.47;62.67;53475.81;5047957;28;20414;-69
2022/04/09 00:44:22;;;;;;;12.13;3.53;;;;;;;-144.47;62.86;53491.72;5047698;28;20029;-68
2022/04/09 00:46:48;;;;;;;6.45;3.38;;;;;;;-144.47;62.72;53499.66;5048045;28;20086;-69
2022/04/09 00:49:16;;;;;;;7.65;3.47;;;;;;;-144.47;62.56;53481.78;5049074;28;20021;-66
2022/04/09 00:51:43;;;;;;;9.05;3.70;;;;;;;-144.47;62.19;53483.78;5047875;28;20029;-70
2022/04/09 00:54:11;;;;;;;9.63;3.85;;;;;;;-144.47;62.34;53497.69;5047275;28;20033;-70
2022/04/09 00:56:38;;;;;;;8.23;4.13;;;;;;;-144.47;62.76;53487.75;5047471;28;20033;-70
2022/04/09 00:59:06;;;;;;;11.48;4.07;;;;;;;-144.47;62.98;53503.63;5048321;28;20295;-70
2022/04/09 01:01:35;;;;;;;9.27;3.92;;;;;;;-144.47;62.75;53495.69;5047445;28;20437;-67
2022/04/09 01:04:05;;;;;;;10.48;4.47;;;;;;;-144.47;63.00;53541.38;5026845;28;20017;-69
2022/04/09 01:06:32;;;;;;;8.30;4.13;;;;;;;-144.47;63.12;53501.66;5047454;28;20033;-69
2022/04/09 01:08:57;;;;;;;7.10;4.20;;;;;;;-144.47;63.35;53493.72;5047338;28;20068;-69
2022/04/09 01:11:23;;;;;;;9.98;4.40;;;;;;;-144.47;63.50;53483.78;5046998;28;20060;-70
2022/04/09 01:13:48;;;;;;;8.70;4.75;;;;;;;-144.47;63.55;53505.63;5047705;28;20063;-71
2022/04/09 01:16:13;;;;;;;8.13;4.60;;;;;;;-144.47;63.43;53501.66;5048410;28;20029;-69
2022/04/09 01:18:41;;;;;;;9.57;4.80;;;;;;;-144.47;63.53;53467.88;5043567;28;20029;-70
2022/04/09 01:21:06;;;;;;;10.10;5.55;;;;;;;-144.47;63.30;53491.72;5047392;28;20044;-68
2022/04/09 01:23:32;;;;;;;10.73;4.50;;;;;;;-144.47;63.17;53533.44;5043722;28;20041;-70
2022/04/09 01:25:59;;;;;;;11.20;4.95;;;;;;;-144.47;63.27;53557.28;5043923;28;20033;-70
2022/04/09 01:28:25;;;;;;;8.65;4.32;;;;;;;-144.47;63.28;53495.69;5045798;28;20028;-68
2022/04/09 01:30:52;;;;;;;10.02;5.30;;;;;;;-144.47;63.09;53471.84;5047318;28;20790;-70
2022/04/09 01:33:18;;;;;;;10.02;4.97;;;;;;;-144.47;63.08;53463.91;5046441;28;20056;-70
2022/04/09 01:35:44;;;;;;;10.55;5.40;;;;;;;-144.47;63.05;53531.44;5046942;22;20049;-65
2022/04/09 01:38:10;;;;;;;9.38;5.25;;;;;;;-144.47;63.10;53489.72;5030378;28;20036;-65
2022/04/09 01:40:36;;;;;;;9.60;4.95;;;;;;;-144.47;62.92;53527.47;5031432;28;20025;-65
2022/04/09 01:43:01;;;;;;;11.45;6.15;;;;;;;-144.47;62.93;53483.78;5030483;28;20026;-64
2022/04/09 01:45:29;;;;;;;12.00;6.18;;;;;;;-144.47;62.63;53475.81;5031993;28;20053;-64
2022/04/09 01:47:55;;;;;;;11.13;6.30;;;;;;;-144.47;62.34;53533.44;5031136;28;20029;-64
2022/04/09 01:50:21;;;;;;;12.05;6.43;;;;;;;-144.47;62.31;53485.75;5031612;28;20044;-65
2022/04/09 01:52:47;;;;;;;10.25;6.45;;;;;;;-144.47;62.03;53453.97;5032132;28;20030;-65
2022/04/09 01:55:13;;;;;;;11.93;7.07;;;;;;;-144.47;62.16;53513.56;5032931;28;20112;-63
2022/04/09 01:57:38;;;;;;;14.32;6.93;;;;;;;-144.47;61.94;53531.44;5032318;28;20072;-65
2022/04/09 02:00:08;;;;;;;16.05;7.15;;;;;;;-144.47;61.86;53473.84;5034097;28;20462;-64
2022/04/09 02:02:33;;;;;;;13.10;6.78;;;;;;;-144.47;61.80;53503.63;5033961;28;20075;-63
2022/04/09 02:04:58;;;;;;;12.20;6.32;;;;;;;-144.47;61.28;53483.78;5034966;28;20033;-64
2022/04/09 02:07:24;;;;;;;13.82;6.35;;;;;;;-144.47;61.13;53531.44;5039235;28;20033;-65
2022/04/09 02:09:49;;;;;;;14.68;6.43;;;;;;;-144.47;61.00;53491.72;5038918;28;20030;-64
2022/04/09 02:12:15;;;;;;;12.70;6.18;;;;;;;-144.47;61.04;53471.84;5038967;28;20025;-66
2022/04/09 02:14:40;;;;;;;11.15;5.75;;;;;;;-144.47;60.72;53473.84;5036853;28;20041;-63
2022/04/09 02:17:05;;;;;;;11.70;5.95;;;;;;;-144.47;60.83;53519.53;5036455;28;20026;-64
2022/04/09 02:19:31;;;;;;;14.88;5.47;;;;;;;-144.47;60.42;53465.91;5036208;28;20040;-64
2022/04/09 02:21:56;;;;;;;11.23;5.70;;;;;;;-144.47;60.45;53517.53;5035396;28;20029;-64
2022/04/09 02:24:21;;;;;;;13.68;6.55;;;;;;;-144.47;60.71;53473.84;5036592;28;20551;-65
2022/04/09 02:26:47;;;;;;;13.20;5.47;;;;;;;-144.47;60.43;53519.53;5037443;28;20041;-65
2022/04/09 02:29:12;;;;;;;10.55;5.35;;;;;;;-144.47;60.62;53521.50;5038660;28;20038;-63
2022/04/09 02:31:38;;;;;;;9.73;5.40;;;;;;;-144.47;60.56;53475.81;5037527;28;20021;-66
2022/04/09 02:34:04;;;;;;;18.27;4.97;;;;;;;-144.47;60.32;53511.59;5037070;28;20029;-65
2022/04/09 02:36:31;;;;;;;18.88;4.85;;;;;;;-144.47;60.25;53473.84;5034632;28;20049;-63
2022/04/09 02:39:00;;;;;;;14.25;5.10;;;;;;;-144.47;60.09;53497.69;5038857;28;20105;-66
2022/04/09 02:41:25;;;;;;;17.08;4.85;;;;;;;-144.47;60.20;53473.84;5035633;28;20776;-64
2022/04/09 02:43:50;;;;;;;10.50;4.78;;;;;;;-144.47;60.38;53455.97;5037972;28;20065;-66
2022/04/09 02:46:16;;;;;;;15.20;5.15;;;;;;;-144.47;60.39;53436.09;5038444;28;20493;-66
2022/04/09 02:48:42;;;;;;;15.35;4.78;;;;;;;-144.47;60.70;53519.53;5037248;28;20164;-65
2022/04/09 02:51:07;;;;;;;12.02;4.60;;;;;;;-144.47;60.61;53503.63;5017487;28;20041;-65
2022/04/09 02:53:32;;;;;;;15.52;4.78;;;;;;;-144.47;60.65;53489.72;5034517;28;20060;-65
2022/04/09 02:55:58;;;;;;;20.77;4.82;;;;;;;-144.47;60.28;53475.81;5036305;28;20034;-65
2022/04/09 02:58:23;;;;;;;10.93;5.65;;;;;;;-144.47;60.37;53475.81;5032028;28;20037;-64
2022/04/09 03:00:49;;;;;;;12.15;4.28;;;;;;;-144.47;60.49;53465.91;5018866;28;20271;-66
2022/04/09 03:03:14;;;;;;;12.55;4.65;;;;;;;-144.47;60.63;53465.91;5035895;28;20720;-66
2022/04/09 03:05:39;;;;;;;13.05;5.65;;;;;;;-144.47;60.37;53503.63;5035987;28;20047;-64
2022/04/09 03:08:05;;;;;;;10.98;4.45;;;;;;;-144.47;60.12;53467.88;5034598;28;20029;-64
2022/04/09 03:10:30;;;;;;;12.15;4.20;;;;;;;-144.47;59.98;53457.94;5033417;28;20037;-67
2022/04/09 03:12:58;;;;;;;12.27;5.75;;;;;;;-144.47;60.03;53475.81;5033734;28;20057;-65
2022/04/09 03:15:23;;;;;;;19.45;4.82;;;;;;;-144.47;59.86;53477.81;5037217;28;20187;-65
2022/04/09 03:17:48;;;;;;;8.98;3.63;;;;;;;-144.47;59.45;53463.91;5037360;28;20542;-63
2022/04/09 03:20:14;;;;;;;8.80;3.97;;;;;;;-144.47;59.58;53507.59;5034165;28;20034;-65
2022/04/09 03:22:46;;;;;;;9.50;3.92;;;;;;;-144.47;59.41;53483.78;5036007;28;20036;-64
2022/04/09 03:25:12;;;;;;;15.18;4.15;;;;;;;-144.47;59.44;53453.97;5037262;28;20037;-68
2022/04/09 03:27:37;;;;;;;11.90;3.80;;;;;;;-144.47;59.10;53467.88;5039555;28;20038;-65
2022/04/09 03:30:04;;;;;;;11.15;2.78;;;;;;;-144.47;59.10;53523.50;5036584;28;20045;-65
2022/04/09 03:32:29;;;;;;;12.10;3.97;;;;;;;-144.47;58.99;53475.81;5039038;28;20450;-64
2022/04/09 03:34:54;;;;;;;8.93;3.13;;;;;;;-144.47;59.15;53519.53;5038228;28;20041;-65
2022/04/09 03:37:20;;;;;;;15.05;3.75;;;;;;;-144.47;58.96;53487.75;5039464;28;20025;-63
2022/04/09 03:39:46;;;;;;;10.85;3.15;;;;;;;-144.47;58.92;53475.81;5039062;28;20036;-65
2022/04/09 03:42:11;;;;;;;11.82;3.05;;;;;;;-144.47;58.69;53483.78;5039371;28;20038;-64
2022/04/09 03:44:36;;;;;;;15.45;3.72;;;;;;;-144.47;58.43;53497.69;5037063;28;20088;-65
2022/04/09 03:47:03;;;;;;;12.88;2.83;;;;;;;-144.47;58.31;53477.81;5038502;28;20080;-64
2022/04/09 03:49:29;;;;;;;16.00;2.60;;;;;;;-144.47;58.00;53499.66;5038227;28;20028;-63
2022/04/09 03:51:56;;;;;;;13.18;3.25;;;;;;;-144.47;57.65;53523.50;5038615;28;20033;-64
2022/04/09 03:54:21;;;;;;;14.55;3.55;;;;;;;-144.47;57.88;53473.84;5037271;28;20030;-63
2022/04/09 03:56:46;;;;;;;11.02;2.58;;;;;;;-144.47;58.15;53475.81;5036738;28;20044;-66
2022/04/09 03:59:11;;;;;;;12.23;2.67;;;;;;;-144.47;58.21;53440.06;5037063;28;20095;-64
2022/04/09 04:01:37;;;;;;;11.32;2.53;;;;;;;-144.47;58.31;53477.81;5036863;28;20025;-65
2022/04/09 04:04:03;;;;;;;15.63;3.13;;;;;;;-144.47;58.30;53463.91;5037284;28;20033;-65
2022/04/09 04:06:29;;;;;;;10.55;2.35;;;;;;;-144.47;58.26;53450.00;5037030;28;20029;-64
2022/04/09 04:08:57;;;;;;;11.45;2.42;;;;;;;-144.47;58.51;53477.81;5036649;28;20098;-66
2022/04/09 04:11:23;;;;;;;11.63;2.80;;;;;;;-144.47;58.93;53452.00;5034381;28;20040;-65
2022/04/09 04:13:49;;;;;;;15.52;2.92;;;;;;;-144.47;58.58;53485.75;5015857;28;20029;-63
2022/04/09 04:16:14;;;;;;;7.10;2.53;;;;;;;-144.47;58.79;53479.81;5031880;28;20013;-66
2022/04/09 04:18:40;;;;;;;17.80;2.97;;;;;;;-144.47;58.46;53475.81;5033091;28;20073;-66
2022/04/09 04:21:05;;;;;;;9.57;2.60;;;;;;;-144.47;57.40;53475.81;5035149;28;20037;-66
2022/04/09 04:23:31;;;;;;;10.35;2.67;;;;;;;-144.47;57.64;53479.81;5036663;28;20030;-64
2022/04/09 04:25:56;;;;;;;11.45;2.15;;;;;;;-144.47;57.24;53485.75;5029145;28;20048;-66
2022/04/09 04:28:21;;;;;;;19.17;4.65;;;;;;;-144.47;56.98;53479.81;5033287;28;20068;-68
2022/04/09 04:30:46;;;;;;;10.68;2.22;;;;;;;-144.47;56.77;53481.78;5033563;28;20066;-65
2022/04/09 04:33:12;;;;;;;11.05;2.70;;;;;;;-144.47;56.76;53489.72;5035845;28;20965;-66
2022/04/09 04:35:37;;;;;;;11.68;2.83;;;;;;;-144.47;56.76;53467.88;5035372;28;20061;-63
2022/04/09 04:38:02;;;;;;;14.82;2.92;;;;;;;-144.47;56.89;53473.84;5035342;28;21247;-65
2022/04/09 04:40:28;;;;;;;12.40;3.42;;;;;;;-144.47;57.25;53467.88;5036892;28;20021;-66
2022/04/09 04:42:53;;;;;;;7.70;2.65;;;;;;;-144.47;57.29;53499.66;5034980;28;20490;-65
2022/04/09 04:45:18;;;;;;;11.60;4.50;;;;;;;-144.47;57.45;53481.78;5028490;28;20037;-66
2022/04/09 04:47:45;;;;;;;12.73;4.80;;;;;;;-144.47;57.76;53471.84;5035395;28;20087;-66
2022/04/09 04:50:11;;;;;;;19.73;5.65;;;;;;;-144.47;58.38;53497.69;5033491;28;20033;-65
2022/04/09 04:52:36;;;;;;;12.73;5.75;;;;;;;-144.47;58.62;53491.72;5034717;28;20021;-63
2022/04/09 04:55:02;;;;;;;15.00;6.43;;;;;;;-144.47;58.85;53511.59;5034702;28;20032;-66
2022/04/09 04:57:27;;;;;;;20.00;7.18;;;;;;;-144.47;59.11;53453.97;5032655;28;20045;-64
2022/04/09 04:59:52;;;;;;;14.93;6.43;;;;;;;-144.47;59.20;53487.75;5030411;28;20091;-65
2022/04/09 05:02:18;;;;;;;15.80;7.10;;;;;;;-144.47;59.29;53503.63;5032113;28;20072;-66
2022/04/09 05:04:43;;;;;;;16.83;7.10;;;;;;;-144.47;59.33;53473.84;5031770;28;20104;-64
2022/04/09 05:07:08;;;;;;;13.30;6.78;;;;;;;-144.47;59.56;53459.94;5028903;28;20022;-66
2022/04/09 05:09:35;;;;;;;13.65;7.00;;;;;;;-144.47;59.68;53489.72;5030556;28;20029;-67
2022/04/09 05:12:00;;;;;;;14.00;5.85;;;;;;;-144.47;59.62;53481.78;5029702;28;20509;-66
2022/04/09 05:14:26;;;;;;;14.05;5.95;;;;;;;-144.47;59.46;53489.72;5029574;28;20514;-64
2022/04/09 05:16:51;;;;;;;14.48;6.90;;;;;;;-144.47;59.50;53469.88;5029720;28;20029;-66
2022/04/09 05:19:16;;;;;;;14.95;6.13;;;;;;;-144.47;59.68;53479.81;5030847;28;20041;-66
2022/04/09 05:21:44;;;;;;;12.27;6.03;;;;;;;-144.47;59.87;53481.78;5030364;28;20411;-66
2022/04/09 05:24:10;;;;;;;14.75;5.95;;;;;;;-144.47;59.96;53479.81;5029878;28;20033;-66
2022/04/09 05:26:35;;;;;;;10.77;6.00;;;;;;;-144.47;60.87;53477.81;5031399;28;20517;-66
2022/04/09 05:29:01;;;;;;;17.23;6.32;;;;;;;-144.47;60.58;53487.75;5030939;28;20036;-65
2022/04/09 05:31:27;;;;;;;14.40;6.80;;;;;;;-144.47;60.35;53463.91;5031461;28;20030;-64
2022/04/09 05:33:54;;;;;;;18.20;6.57;;;;;;;-144.47;60.74;53479.81;5028757;28;20053;-66
2022/04/09 05:36:20;;;;;;;15.20;6.32;;;;;;;-144.47;60.95;53481.78;5031520;28;20026;-65
2022/04/09 05:38:45;;;;;;;21.63;6.90;;;;;;;-144.47;60.18;53461.91;5031576;28;20111;-66
2022/04/09 05:41:10;;;;;;;15.18;5.95;;;;;;;-144.47;60.25;53475.81;5033192;28;20037;-65
2022/04/09 05:43:36;;;;;;;15.45;6.45;;;;;;;-144.47;60.37;53461.91;5036320;28;20025;-68
2022/04/09 05:46:01;;;;;;;14.13;5.75;;;;;;;-144.47;60.30;53479.81;5036423;28;20079;-66
2022/04/09 05:48:27;;;;;;;9.85;5.50;;;;;;;-144.47;60.34;53453.97;5037189;28;20041;-65
2022/04/09 05:50:52;;;;;;;17.83;6.13;;;;;;;-144.47;60.68;53473.84;5035250;28;20029;-66
2022/04/09 05:53:17;;;;;;;20.35;6.47;;;;;;;-144.47;60.77;53453.97;5034340;28;20140;-65
2022/04/09 05:55:42;;;;;;;11.18;4.22;;;;;;;-144.47;60.22;53463.91;5036673;28;20029;-66
2022/04/09 05:58:08;;;;;;;8.32;4.20;;;;;;;-144.47;60.38;53497.69;5033610;28;20033;-65
2022/04/09 06:00:34;;;;;;;11.32;4.93;;;;;;;-144.47;60.36;53513.56;5037864;28;20046;-66
2022/04/09 06:03:00;;;;;;;13.60;4.40;;;;;;;-144.47;60.75;53479.81;5039456;28;20037;-64
2022/04/09 06:05:26;;;;;;;8.95;3.60;;;;;;;-144.47;60.87;53491.72;5038230;28;20072;-65
2022/04/09 06:07:51;;;;;;;15.20;4.13;;;;;;;-144.47;60.70;53491.72;5027484;28;20029;-65
2022/04/09 06:10:17;;;;;;;14.98;4.63;;;;;;;-144.47;60.74;53463.91;5039055;28;20026;-64
2022/04/09 06:12:42;;;;;;;9.18;3.33;;;;;;;-144.47;60.06;53507.59;5037119;28;20242;-65
2022/04/09 06:15:08;;;;;;;11.27;2.90;;;;;;;-144.47;60.01;53479.81;5037948;28;20090;-65
2022/04/09 06:17:36;;;;;;;12.82;2.85;;;;;;;-144.47;59.44;53487.75;5039542;28;20041;-65
2022/04/09 06:20:01;;;;;;;15.70;3.13;;;;;;;-144.47;59.20;53497.69;5031093;28;20030;-65
2022/04/09 06:22:26;;;;;;;8.65;2.63;;;;;;;-144.47;58.95;53499.66;5039220;28;20439;-64
2022/04/09 06:24:52;;;;;;;7.07;2.50;;;;;;;-144.47;58.73;53487.75;5038470;28;20045;-66
2022/04/09 06:27:17;;;;;;;6.47;2.28;;;;;;;-144.47;58.54;53513.56;5038314;28;21613;-66
2022/04/09 06:29:42;;;;;;;13.13;3.85;;;;;;;-144.47;58.34;53515.56;5034620;28;20037;-66
2022/04/09 06:32:07;;;;;;;9.68;2.53;;;;;;;-144.47;57.96;53503.63;5038609;28;20072;-65
2022/04/09 06:34:33;;;;;;;8.73;2.65;;;;;;;-144.47;57.58;53477.81;5036082;28;20037;-67
2022/04/09 06:36:59;;;;;;;9.63;2.85;;;;;;;-144.47;57.63;53444.03;5036250;28;20086;-67
2022/04/09 06:39:25;;;;;;;12.48;2.13;;;;;;;-144.47;57.13;53453.97;5029041;28;20064;-67
2022/04/09 06:41:51;;;;;;;7.65;2.45;;;;;;;-144.47;56.91;53483.78;5039237;28;20040;-67
2022/04/09 06:44:16;;;;;;;11.50;2.80;;;;;;;-144.47;56.73;53436.09;5032009;28;20037;-67
2022/04/09 06:46:43;;;;;;;12.82;2.63;;;;;;;-144.47;56.88;53489.72;5032663;28;20462;-68
2022/04/09 06:49:11;;;;;;;13.00;2.65;;;;;;;-144.47;56.29;53483.78;5034929;28;20018;-64
2022/04/09 06:51:37;;;;;;;12.35;2.65;;;;;;;-144.47;56.50;53505.63;5033851;28;20084;-66
2022/04/09 06:54:02;;;;;;;14.05;2.78;;;;;;;-144.47;56.30;53467.88;5034021;28;20046;-66
2022/04/09 06:56:27;;;;;;;13.18;2.55;;;;;;;-144.47;56.54;53463.91;5035265;28;20037;-65
2022/04/09 06:58:53;;;;;;;9.43;2.28;;;;;;;-144.47;56.26;53457.94;5032813;28;20107;-64
2022/04/09 07:01:18;;;;;;;13.32;2.55;;;;;;;-144.47;56.05;53471.84;5033842;28;20458;-68
2022/04/09 07:03:43;;;;;;;11.63;3.20;;;;;;;-144.47;55.66;53501.66;5033795;28;20079;-65
2022/04/09 07:06:10;;;;;;;10.18;2.83;;;;;;;-144.47;55.12;53455.97;5035999;28;20120;-65
2022/04/09 07:08:35;;;;;;;11.55;2.05;;;;;;;-144.47;55.38;53459.94;5040093;28;20076;-64
2022/04/09 07:11:00;;;;;;;10.40;2.47;;;;;;;-144.47;53.89;53493.72;5038081;28;20227;-66
2022/04/09 07:13:25;;;;;;;16.60;2.78;;;;;;;-144.47;54.28;53455.97;5033793;28;20048;-66
2022/04/09 07:15:51;;;;;;;9.10;2.15;;;;;;;-144.47;54.18;53455.97;5033870;28;20061;-70
2022/04/09 07:18:16;;;;;;;10.65;2.40;;;;;;;-144.47;54.25;53444.03;5029171;28;20093;-66
2022/04/09 07:20:44;;;;;;;13.93;2.60;;;;;;;-144.47;54.15;53481.78;5029085;28;20140;-67
2022/04/09 07:23:09;;;;;;;8.00;2.13;;;;;;;-144.47;53.95;53461.91;5031881;28;20048;-69
2022/04/09 07:25:35;;;;;;;5.90;2.22;;;;;;;-144.47;52.89;53503.63;5027507;28;20026;-64
2022/04/09 07:28:00;;;;;;;7.88;2.33;;;;;;;-144.47;52.69;53465.91;5032547;28;20032;-66
2022/04/09 07:30:26;;;;;;;10.57;2.25;;;;;;;-144.47;52.88;53459.94;5033821;28;20549;-67
2022/04/09 07:32:56;;;;;;;11.02;2.35;;;;;;;-144.47;52.71;53473.84;5031737;28;20586;-67
2022/04/09 07:35:21;;;;;;;6.15;1.77;;;;;;;-144.47;52.89;53463.91;5062481;22;20044;-68
2022/04/09 07:37:53;;;;;;;6.60;1.95;;;;;;;-144.47;51.87;53453.97;5068196;28;20121;-66
2022/04/09 07:40:20;;;;;;;11.90;2.55;;;;;;;-144.47;50.90;53450.00;5050170;28;20024;-70
2022/04/09 07:42:45;;;;;;;10.70;2.05;;;;;;;-144.47;50.32;53455.97;5068465;28;20450;-70
2022/04/09 07:45:13;;;;;;;8.82;1.65;;;;;;;-144.47;49.88;53473.84;5068277;28;20478;-68
2022/04/09 07:47:38;;;;;;;13.98;2.13;;;;;;;-144.47;49.85;53493.72;5067358;28;20615;-69
2022/04/09 07:50:06;;;;;;;7.68;2.10;;;;;;;-144.47;49.88;53448.00;5069344;28;20036;-71
2022/04/09 07:52:32;;;;;;;4.40;1.30;;;;;;;-144.47;49.75;53440.06;5066000;28;20104;-69
2022/04/09 07:54:58;;;;;;;7.68;2.13;;;;;;;-144.47;49.86;53428.16;5069099;28;20099;-68
2022/04/09 07:57:26;;;;;;;7.43;1.77;;;;;;;-144.47;49.50;53459.94;5069181;28;20037;-70
2022/04/09 07:59:57;;;;;;;5.22;1.67;;;;;;;-144.47;50.03;53463.91;5062465;28;20135;-71
2022/04/09 08:02:23;;;;;;;10.82;2.67;;;;;;;-144.47;50.16;53448.00;5061230;28;20117;-70
2022/04/09 08:04:48;;;;;;;6.50;1.95;;;;;;;-144.47;49.06;53446.03;5060673;28;20040;-68
2022/04/09 08:07:13;;;;;;;10.85;2.10;;;;;;;-144.47;49.36;53438.09;5060463;28;20020;-72
2022/04/09 08:09:39;;;;;;;9.63;2.30;;;;;;;-144.47;49.49;53475.81;5060804;28;20044;-73
2022/04/09 08:12:04;;;;;;;8.05;1.77;;;;;;;-144.47;48.83;53420.22;5061734;28;20032;-72
2022/04/09 08:14:32;;;;;;;8.25;1.70;;;;;;;-144.47;48.29;53418.22;5062304;28;20060;-72
2022/04/09 08:16:57;;;;;;;8.93;2.03;;;;;;;-144.47;48.71;53428.16;5062865;28;20564;-70
2022/04/09 08:19:23;;;;;;;5.78;1.20;;;;;;;-144.47;47.81;53463.91;5059136;28;20124;-68
2022/04/09 08:21:48;;;;;;;6.25;1.63;;;;;;;-144.47;47.70;53444.03;5069957;28;20067;-70
2022/04/09 08:24:14;;;;;;;10.77;2.15;;;;;;;-144.47;47.64;53440.06;5051425;28;20105;-70
2022/04/09 08:26:39;;;;;;;4.43;1.67;;;;;;;-144.47;48.01;53418.22;5057257;28;20182;-69
2022/04/09 08:29:05;;;;;;;7.82;1.40;;;;;;;-144.47;47.24;53416.22;5069152;28;20101;-71
2022/04/09 08:31:30;;;;;;;6.53;1.23;;;;;;;-144.47;46.60;53453.97;5041161;28;20028;-70
2022/04/09 08:33:56;;;;;;;5.88;1.23;;;;;;;-144.47;46.70;53410.28;5065429;28;20130;-72
2022/04/09 08:36:22;;;;;;;5.70;1.35;;;;;;;-144.47;47.09;53463.91;5066295;28;20105;-71
2022/04/09 08:38:48;;;;;;;6.50;2.03;;;;;;;-144.47;46.87;53440.06;5067190;28;20565;-71
2022/04/09 08:41:14;;;;;;;2.97;1.15;;;;;;;-144.47;48.46;53420.22;5070905;28;20443;-69
2022/04/09 08:43:40;;;;;;;9.18;1.60;;;;;;;-144.47;48.34;53396.38;5067847;28;20025;-69
2022/04/09 08:46:05;;;;;;;4.22;1.00;;;;;;;-144.47;48.54;53438.09;5068740;28;20063;-71
2022/04/09 08:48:31;;;;;;;4.57;1.27;;;;;;;-144.47;47.89;53461.91;5068082;28;20063;-69
2022/04/09 08:50:57;;;;;;;3.53;1.20;;;;;;;-144.47;48.15;53396.38;5068079;28;20036;-73
2022/04/09 08:53:23;;;;;;;4.85;1.42;;;;;;;-144.47;48.29;53424.19;5074953;28;20048;-71
2022/04/09 08:55:50;;;;;;;6.57;1.40;;;;;;;-144.47;47.47;53452.00;5066923;28;20029;-69
2022/04/09 08:58:15;;;;;;;6.80;1.52;;;;;;;-144.47;48.21;53420.22;5069062;28;20108;-70
2022/04/09 09:00:42;;;;;;;8.02;1.38;;;;;;;-144.47;47.85;53448.00;5068096;28;20174;-70
2022/04/09 09:03:10;;;;;;;13.80;2.55;;;;;;;-144.47;47.48;53420.22;5046992;28;20043;-68
2022/04/09 09:05:41;;;;;;;6.15;1.90;;;;;;;-144.47;46.83;53469.88;5068340;28;20620;-68
2022/04/09 09:08:09;;;;;;;7.93;1.50;;;;;;;-144.47;46.02;53434.09;5049512;28;20040;-68
2022/04/09 09:10:35;;;;;;;6.25;1.55;;;;;;;-144.47;46.05;53452.00;5068015;28;20034;-69
2022/04/09 09:13:08;;;;;;;4.85;1.55;;;;;;;-144.47;45.26;53424.19;5069672;28;20025;-68
2022/04/09 09:15:53;;;;;;;11.80;1.63;;;;;;;-144.47;44.51;53398.34;5068277;28;20041;-69
2022/04/09 09:18:26;;;;;;;4.22;1.38;;;;;;;-144.47;44.46;53396.38;5050402;28;20037;-68
2022/04/09 09:20:57;;;;;;;3.97;1.20;;;;;;;-144.47;44.22;53360.63;5067613;28;20036;-72
2022/04/09 09:23:33;;;;;;;5.45;1.10;;;;;;;-144.47;44.58;53450.00;5066302;28;20044;-69
2022/04/09 09:26:00;;;;;;;6.03;1.85;;;;;;;-144.47;44.79;53436.09;5066319;28;20052;-71
2022/04/09 09:28:34;;;;;;;3.65;1.25;;;;;;;-144.47;44.26;53424.19;5068350;28;20093;-67
2022/04/09 09:31:00;;;;;;;3.00;1.17;;;;;;;-144.47;45.88;53424.19;5054561;28;20045;-71
2022/04/09 09:33:27;;;;;;;5.43;1.48;;;;;;;-144.47;45.36;53436.09;5066068;28;20185;-70
2022/04/09 09:35:59;;;;;;;7.10;1.40;;;;;;;-144.47;46.35;53418.22;5066575;28;20029;-68
2022/04/09 09:38:27;;;;;;;3.45;1.13;;;;;;;-144.47;46.10;53424.19;5063017;28;20079;-69
2022/04/09 09:40:53;;;;;;;6.18;1.30;;;;;;;-144.47;45.93;53396.38;5047379;28;20033;-73
2022/04/09 09:43:20;;;;;;;2.00;1.17;;;;;;;-144.47;45.65;53424.19;5067877;28;20409;-71
2022/04/09 09:45:46;;;;;;;6.32;1.33;;;;;;;-144.47;44.62;53414.25;5047225;28;20036;-71
2022/04/09 09:48:29;;;;;;;4.85;1.30;;;;;;;-144.47;44.42;53400.34;5065959;28;20506;-69
2022/04/09 09:50:58;;;;;;;2.45;0.95;;;;;;;-144.47;44.21;53438.09;5066139;28;20044;-70
2022/04/09 09:53:28;;;;;;;5.90;1.10;;;;;;;-144.47;44.04;53402.31;5069277;28;20040;-69
2022/04/09 09:55:53;;;;;;;3.80;1.60;;;;;;;-144.47;44.38;53366.56;5057474;28;20086;-73
2022/04/09 09:58:21;;;;;;;4.05;1.30;;;;;;;-144.47;44.90;53432.13;5066365;28;20044;-69
2022/04/09 10:00:47;;;;;;;4.57;1.23;;;;;;;-144.47;44.11;53440.06;5056238;28;20056;-71
2022/04/09 10:03:13;;;;;;;6.45;1.40;;;;;;;-144.47;45.00;53436.09;5064723;28;20048;-69
2022/04/09 10:05:40;;;;;;;7.28;1.52;;;;;;;-144.47;44.38;53436.09;5066462;28;20498;-71
2022/04/09 10:08:06;;;;;;;9.95;1.52;;;;;;;-144.47;43.27;53412.25;5064995;28;20409;-73
2022/04/09 10:10:36;;;;;;;5.65;1.17;;;;;;;-144.47;42.42;53410.28;5051614;28;20489;-70
2022/04/09 10:13:03;;;;;;;5.78;1.30;;;;;;;-144.47;43.67;53382.47;5060342;28;20571;-72
2022/04/09 10:15:30;;;;;;;3.13;1.23;;;;;;;-144.47;42.87;53432.13;5064671;28;20037;-72
2022/04/09 10:17:59;;;;;;;2.80;1.05;;;;;;;-144.47;42.47;53446.03;5067856;28;20063;-69
2022/04/09 10:20:28;;;;;;;3.03;1.20;;;;;;;-144.47;41.83;53386.44;5066664;28;20060;-70
2022/04/09 10:22:58;;;;;;;1.27;1.05;;;;;;;-144.47;40.87;53402.31;5064493;28;20529;-69
2022/04/09 10:25:29;;;;;;;2.95;1.00;;;;;;;-144.47;40.49;53408.28;5065687;28;20594;-66
2022/04/09 10:28:02;;;;;;;7.10;1.65;;;;;;;-144.47;40.37;53440.06;5065467;28;20044;-69
2022/04/09 10:30:29;;;;;;;4.75;1.27;;;;;;;-144.47;40.81;53416.22;5062907;28;20494;-71
2022/04/09 10:32:57;;;;;;;7.18;1.95;;;;;;;-144.47;40.60;53362.59;5050135;28;20586;-73
2022/04/09 10:35:29;;;;;;;3.97;1.33;;;;;;;-144.47;40.61;53424.19;5068680;28;20067;-69
2022/04/09 10:38:06;;;;;;;5.35;1.42;;;;;;;-144.47;41.02;53392.41;5076570;28;20064;-70
2022/04/09 10:40:31;;;;;;;5.43;1.58;;;;;;;-144.47;41.75;53422.19;5072756;28;20501;-70
2022/04/09 10:42:57;;;;;;;5.40;1.35;;;;;;;-144.47;42.38;53404.31;5084332;28;20061;-68
2022/04/09 10:45:22;;;;;;;3.35;1.35;;;;;;;-144.47;42.51;53380.47;5067769;28;20032;-69
2022/04/09 10:48:10;;;;;;;7.88;1.33;;;;;;;-144.47;40.66;53442.06;5065028;28;20094;-69
2022/04/09 10:50:57;;;;;;;5.60;1.27;;;;;;;-144.47;39.14;53368.56;5069278;28;20043;-68
2022/04/09 10:53:25;;;;;;;6.00;1.30;;;;;;;-144.47;39.00;53340.75;5055573;28;20048;-69
2022/04/09 10:56:15;;;;;;;5.30;1.33;;;;;;;-144.47;39.09;53348.69;5069504;28;20036;-70
2022/04/09 10:59:16;;;;;;;4.78;1.48;;;;;;;-144.47;38.82;53378.50;5069793;28;20069;-69
2022/04/09 11:01:50;;;;;;;6.25;1.50;;;;;;;-144.47;39.01;53360.63;5050983;28;20020;-70
2022/04/09 11:04:37;;;;;;;5.00;1.10;;;;;;;-144.47;38.70;53354.66;5069840;28;20028;-72
2022/04/09 11:07:15;;;;;;;4.75;1.25;;;;;;;-144.47;38.12;53344.72;5068574;28;20040;-70
2022/04/09 11:09:51;;;;;;;8.50;2.13;;;;;;;-144.47;37.74;53372.53;5071923;28;20040;-70
2022/04/09 11:12:28;;;;;;;7.43;1.40;;;;;;;-144.47;37.81;53384.44;5073623;28;20040;-70